createdAt,value
2023-05-26T00:00:12.266Z,13.05
2023-05-26T00:05:14.649Z,14.98
2023-05-26T00:10:16.257Z,18.02
2023-05-26T00:15:18.018Z,19.52
2023-05-26T00:20:19.776Z,17.00
2023-05-26T00:25:21.455Z,18.38
2023-05-26T00:30:23.050Z,17.30
2023-05-26T00:35:24.691Z,13.13
2023-05-26T00:40:26.447Z,18.88
2023-05-26T00:45:28.044Z,20.50
2023-05-26T00:50:29.880Z,16.67
2023-05-26T00:55:32.327Z,15.82
2023-05-26T01:00:34.690Z,21.17
2023-05-26T01:05:36.278Z,17.67
2023-05-26T01:10:37.892Z,17.10
2023-05-26T01:15:57.478Z,17.63
2023-05-26T01:21:11.719Z,21.02
2023-05-26T01:26:50.737Z,19.20
2023-05-26T01:31:52.403Z,13.25
2023-05-26T01:36:54.005Z,16.23
2023-05-26T01:42:19.802Z,20.20
2023-05-26T01:47:33.288Z,15.77
2023-05-26T01:52:38.509Z,13.63
2023-05-26T01:57:43.996Z,15.73
2023-05-26T02:02:46.418Z,23.40
2023-05-26T02:07:48.135Z,20.10
2023-05-26T02:12:49.852Z,17.35
2023-05-26T02:17:51.463Z,16.27
2023-05-26T02:22:53.391Z,15.35
2023-05-26T02:27:55.033Z,18.65
2023-05-26T02:32:56.688Z,19.10
2023-05-26T02:37:58.374Z,16.20
2023-05-26T02:43:00.926Z,27.10
2023-05-26T02:48:02.497Z,17.42
2023-05-26T02:53:06.133Z,22.38
2023-05-26T02:58:07.793Z,17.23
2023-05-26T03:03:10.110Z,20.60
2023-05-26T03:08:11.759Z,19.95
2023-05-26T03:13:13.504Z,19.25
2023-05-26T03:18:15.365Z,26.08
2023-05-26T03:23:18.689Z,14.35
2023-05-26T03:28:20.360Z,17.33
2023-05-26T03:33:21.926Z,22.67
2023-05-26T03:38:23.639Z,16.65
2023-05-26T03:43:25.329Z,21.08
2023-05-26T03:48:27.757Z,18.52
2023-05-26T03:53:30.336Z,16.02
2023-05-26T03:58:32.617Z,17.63
2023-05-26T04:03:34.488Z,26.48
2023-05-26T04:08:36.548Z,27.98
2023-05-26T04:13:38.602Z,12.75
2023-05-26T04:18:40.929Z,18.30
2023-05-26T04:23:42.697Z,18.73
2023-05-26T04:28:44.406Z,16.83
2023-05-26T04:34:15.242Z,24.45
2023-05-26T04:39:31.904Z,19.45
2023-05-26T04:44:33.545Z,22.77
2023-05-26T04:49:36.941Z,18.95
2023-05-26T04:54:39.011Z,21.55
2023-05-26T04:59:40.943Z,17.45
2023-05-26T05:04:42.616Z,21.63
2023-05-26T05:09:44.358Z,19.05
2023-05-26T05:14:46.087Z,18.20
2023-05-26T05:19:49.599Z,17.17
2023-05-26T05:24:56.199Z,17.67
2023-05-26T05:29:57.837Z,17.48
2023-05-26T05:35:01.762Z,15.70
2023-05-26T05:40:05.531Z,15.15
2023-05-26T05:45:07.722Z,16.05
2023-05-26T05:50:41.353Z,16.02
2023-05-26T05:55:43.096Z,14.57
2023-05-26T06:00:45.121Z,14.90
2023-05-26T06:05:47.165Z,14.68
2023-05-26T06:10:49.183Z,12.52
2023-05-26T06:15:50.952Z,14.02
2023-05-26T06:20:54.622Z,16.80
2023-05-26T06:25:56.631Z,14.07
2023-05-26T06:30:58.626Z,19.88
2023-05-26T06:36:23.716Z,14.57
2023-05-26T06:41:26.681Z,15.35
2023-05-26T06:46:29.690Z,14.88
2023-05-26T06:51:31.340Z,18.05
2023-05-26T06:56:33.364Z,14.00
2023-05-26T07:01:35.829Z,13.02
2023-05-26T07:06:46.727Z,13.98
2023-05-26T07:11:50.375Z,17.30
2023-05-26T07:17:12.092Z,15.27
2023-05-26T07:22:15.200Z,16.83
2023-05-26T07:27:33.624Z,17.75
2023-05-26T07:32:35.519Z,13.30
2023-05-26T07:37:37.353Z,15.13
2023-05-26T07:42:38.968Z,17.13
2023-05-26T07:47:40.574Z,17.40
2023-05-26T07:52:42.311Z,13.88
2023-05-26T07:57:43.901Z,12.73
2023-05-26T08:02:45.615Z,15.88
2023-05-26T08:07:47.340Z,13.02
2023-05-26T08:12:49.106Z,15.48
2023-05-26T08:17:50.961Z,15.73
2023-05-26T08:22:52.623Z,17.65
2023-05-26T08:27:54.547Z,14.48
2023-05-26T08:32:56.229Z,19.17
2023-05-26T08:37:57.879Z,15.77
2023-05-26T08:43:03.873Z,15.48
2023-05-26T08:48:09.251Z,17.55
2023-05-26T08:53:10.882Z,17.60
2023-05-26T08:58:14.689Z,14.68
2023-05-26T09:03:16.405Z,17.48
2023-05-26T09:08:18.100Z,15.90
2023-05-26T09:13:19.921Z,18.98
2023-05-26T09:18:21.610Z,13.93
2023-05-26T09:23:23.309Z,16.08
2023-05-26T09:28:24.921Z,13.52
2023-05-26T09:33:26.528Z,14.73
2023-05-26T09:38:28.162Z,14.30
2023-05-26T09:43:34.078Z,17.80
2023-05-26T09:48:36.027Z,19.75
2023-05-26T09:53:37.586Z,16.92
2023-05-26T09:58:40.612Z,16.15
2023-05-26T10:03:42.365Z,14.65
2023-05-26T10:08:46.579Z,14.38
2023-05-26T10:13:48.388Z,14.38
2023-05-26T10:18:50.836Z,19.38
2023-05-26T10:24:02.940Z,18.23
2023-05-26T10:29:07.801Z,17.88
2023-05-26T10:34:14.037Z,10.15
2023-05-26T10:39:19.099Z,13.50
2023-05-26T10:44:40.928Z,16.27
2023-05-26T10:49:51.883Z,15.75
2023-05-26T10:54:53.672Z,16.25
2023-05-26T10:59:55.241Z,17.02
2023-05-26T11:04:56.902Z,16.98
2023-05-26T11:10:05.588Z,11.23
2023-05-26T11:15:29.252Z,17.83
2023-05-26T11:20:30.958Z,15.55
2023-05-26T11:25:44.528Z,12.77
2023-05-26T11:30:46.091Z,14.60
2023-05-26T11:35:47.669Z,13.00
2023-05-26T11:40:49.788Z,13.98
2023-05-26T11:45:54.875Z,15.27
2023-05-26T11:56:38.495Z,13.60
2023-05-26T12:01:40.146Z,14.32
2023-05-26T12:06:43.708Z,14.32
2023-05-26T12:11:47.406Z,11.60
2023-05-26T12:16:50.488Z,12.38
2023-05-26T12:21:54.608Z,13.23
2023-05-26T12:26:56.333Z,12.73
2023-05-26T12:31:58.194Z,11.95
2023-05-26T12:36:59.940Z,11.98
2023-05-26T12:42:01.606Z,13.27
2023-05-26T12:47:03.228Z,15.27
2023-05-26T12:52:04.914Z,12.38
2023-05-26T12:57:06.487Z,11.55
2023-05-26T13:02:08.607Z,13.30
2023-05-26T13:07:10.344Z,18.00
2023-05-26T13:12:12.019Z,15.35
2023-05-26T13:17:13.596Z,12.30
2023-05-26T13:22:15.212Z,13.23
2023-05-26T13:27:16.777Z,13.75
2023-05-26T13:32:18.401Z,11.27
2023-05-26T13:37:20.036Z,12.35
2023-05-26T13:42:21.743Z,16.02
2023-05-26T13:47:26.145Z,10.30
2023-05-26T13:52:28.415Z,11.43
2023-05-26T13:57:30.770Z,17.40
2023-05-26T14:02:33.238Z,13.13
2023-05-26T14:07:35.052Z,12.27
2023-05-26T14:12:36.682Z,13.25
2023-05-26T14:17:39.068Z,15.55
2023-05-26T14:22:41.261Z,13.50
2023-05-26T14:27:43.236Z,11.73
2023-05-26T14:32:46.402Z,13.75
2023-05-26T14:37:50.163Z,12.75
2023-05-26T14:42:51.747Z,11.88
2023-05-26T14:47:53.899Z,13.30
2023-05-26T14:52:55.545Z,11.85
2023-05-26T14:57:57.105Z,13.40
2023-05-26T15:02:58.754Z,11.48
2023-05-26T15:08:01.476Z,15.00
2023-05-26T15:13:03.182Z,14.55
2023-05-26T15:18:05.897Z,13.48
2023-05-26T15:23:07.904Z,10.27
2023-05-26T15:28:09.643Z,8.63
2023-05-26T15:33:11.276Z,11.48
2023-05-26T15:38:12.905Z,12.75
2023-05-26T15:43:14.858Z,12.90
2023-05-26T15:48:17.883Z,8.65
2023-05-26T15:53:19.541Z,14.88
2023-05-26T15:58:21.218Z,13.32
2023-05-26T16:03:22.909Z,18.05
2023-05-26T16:08:24.525Z,12.05
2023-05-26T16:13:26.076Z,13.23
2023-05-26T16:18:27.666Z,12.13
2023-05-26T16:23:29.480Z,11.82
2023-05-26T16:28:31.729Z,11.60
2023-05-26T16:33:33.335Z,14.32
2023-05-26T16:38:34.968Z,9.68
2023-05-26T16:43:47.902Z,10.15
2023-05-26T16:48:50.315Z,12.82
2023-05-26T16:53:51.875Z,12.75
2023-05-26T16:58:53.481Z,12.73
2023-05-26T17:03:55.052Z,12.45
2023-05-26T17:08:56.792Z,8.35
2023-05-26T17:13:58.389Z,10.07
2023-05-26T17:18:59.947Z,11.60
2023-05-26T17:24:01.641Z,9.05
2023-05-26T17:29:03.220Z,9.82
2023-05-26T17:34:04.859Z,9.60
2023-05-26T17:39:06.985Z,9.35
2023-05-26T17:44:10.666Z,6.50
2023-05-26T17:49:13.763Z,7.97
2023-05-26T17:54:15.297Z,9.63
2023-05-26T17:59:16.876Z,7.88
2023-05-26T18:04:18.619Z,10.57
2023-05-26T18:09:20.269Z,10.43
2023-05-26T18:14:21.879Z,11.98
2023-05-26T18:19:23.459Z,9.70
2023-05-26T18:24:25.135Z,8.30
2023-05-26T18:29:26.709Z,11.05
2023-05-26T18:34:28.301Z,8.73
2023-05-26T18:39:30.290Z,9.75
2023-05-26T18:44:31.831Z,8.60
2023-05-26T18:49:33.542Z,8.50
2023-05-26T18:54:35.118Z,7.95
2023-05-26T18:59:36.662Z,9.40
2023-05-26T19:04:38.523Z,7.50
2023-05-26T19:09:40.063Z,11.75
2023-05-26T19:14:41.619Z,11.63
2023-05-26T19:19:43.167Z,13.23
2023-05-26T19:24:44.833Z,9.93
2023-05-26T19:29:46.389Z,12.32
2023-05-26T19:34:48.164Z,12.48
2023-05-26T19:39:49.694Z,10.98
2023-05-26T19:44:51.236Z,11.65
2023-05-26T19:49:52.970Z,10.80
2023-05-26T19:54:54.500Z,10.20
2023-05-26T19:59:56.096Z,11.70
2023-05-26T20:04:57.628Z,13.77
2023-05-26T20:09:59.160Z,11.13
2023-05-26T20:15:01.918Z,10.13
2023-05-26T20:20:12.637Z,13.85
2023-05-26T20:25:15.356Z,12.70
2023-05-26T20:30:16.941Z,13.13
2023-05-26T20:35:18.696Z,10.75
2023-05-26T20:40:20.321Z,11.82
2023-05-26T20:45:21.865Z,11.73
2023-05-26T20:50:23.563Z,7.30
2023-05-26T20:55:25.583Z,13.43
2023-05-26T21:00:27.127Z,10.40
2023-05-26T21:05:28.696Z,10.20
2023-05-26T21:10:30.229Z,11.05
2023-05-26T21:15:31.860Z,10.23
2023-05-26T21:20:33.492Z,11.35
2023-05-26T21:25:35.041Z,9.80
2023-05-26T21:30:36.670Z,13.20
2023-05-26T21:35:38.276Z,9.65
2023-05-26T21:40:39.809Z,11.15
2023-05-26T21:45:41.350Z,12.40
2023-05-26T21:50:42.960Z,9.95
2023-05-26T21:55:44.539Z,8.85
2023-05-26T22:00:46.094Z,12.73
2023-05-26T22:05:47.713Z,12.10
2023-05-26T22:10:49.277Z,15.02
2023-05-26T22:15:50.845Z,11.32
2023-05-26T22:20:52.449Z,9.45
2023-05-26T22:25:54.401Z,15.00
2023-05-26T22:30:57.762Z,15.70
2023-05-26T22:35:59.462Z,13.50
2023-05-26T22:41:01.086Z,10.80
2023-05-26T22:46:02.636Z,11.50
2023-05-26T22:51:04.305Z,11.50
2023-05-26T22:56:13.534Z,12.68
2023-05-26T23:01:15.980Z,10.77
2023-05-26T23:06:17.651Z,9.57
2023-05-26T23:11:19.383Z,12.18
2023-05-26T23:16:21.066Z,16.08
2023-05-26T23:21:22.698Z,9.98
2023-05-26T23:26:24.299Z,10.50
2023-05-26T23:31:25.916Z,12.50
2023-05-26T23:36:27.619Z,12.80
2023-05-26T23:41:29.261Z,11.88
2023-05-26T23:46:30.930Z,9.32
2023-05-26T23:51:32.515Z,11.40
2023-05-26T23:56:34.204Z,14.40
